Terminal Aerodrome Forecast
Issued by NWS

Home | Current Version | Previous Version | Text Only | Print | Product List | Glossary On
Versions: 1 2 3 4 5 6 7 8 9 10 11
057
FTUS44 KMAF 101720
TAFCNM
TAF
KCNM 101720Z 1018/1118 21011KT P6SM SKC
     FM110000 23007KT P6SM SKC=

USA.gov is the U.S. government's official web portal to all federal, state and local government web resources and services.